Time;durP1;ratioP1;P1;durP2;ratioP2;P2;SDS_P1;SDS_P2;PMS_P1;PMS_P2;Temp;Humidity;BMP_temperature;BMP_pressure;BME280_temperature;BME280_humidity;BME280_pressure;Samples;Min_cycle;Max_cycle;Signal;HPM_P1;HPM_P2
2022/11/18 00:00:32;;;;;;;3.00;1.80;;;10.20;99.90;;;;;;5042694;28;20040;-39
2022/11/18 00:02:58;;;;;;;4.22;1.95;;;10.20;99.90;;;;;;5042427;28;20024;-39
2022/11/18 00:05:23;;;;;;;4.57;1.77;;;10.20;99.90;;;;;;5041248;28;20411;-40
2022/11/18 00:07:49;;;;;;;6.03;1.88;;;10.20;99.90;;;;;;5042976;28;20705;-41
2022/11/18 00:10:15;;;;;;;3.95;2.20;;;10.20;99.90;;;;;;5042391;28;20013;-35
2022/11/18 00:15:24;;;;;;;2.92;1.75;;;10.20;99.90;;;;;;5041894;28;20106;-41
2022/11/18 00:17:50;;;;;;;4.97;1.60;;;10.10;99.90;;;;;;5041779;28;20384;-39
2022/11/18 00:20:15;;;;;;;3.35;1.60;;;10.10;99.90;;;;;;5042550;28;20559;-40
2022/11/18 00:22:41;;;;;;;3.08;1.67;;;10.00;99.90;;;;;;5042768;28;20032;-38
2022/11/18 00:25:07;;;;;;;2.63;1.50;;;10.00;99.90;;;;;;5041512;28;20780;-35
2022/11/18 00:27:32;;;;;;;3.72;1.65;;;10.00;99.90;;;;;;5042320;28;20500;-36
2022/11/18 00:29:58;;;;;;;3.05;1.48;;;9.90;99.90;;;;;;5042051;28;20032;-39
2022/11/18 00:32:23;;;;;;;5.13;1.83;;;9.90;99.90;;;;;;5041051;28;20045;-40
2022/11/18 00:34:49;;;;;;;2.55;1.85;;;9.90;99.90;;;;;;5042415;28;20063;-40
2022/11/18 00:37:14;;;;;;;3.65;1.65;;;9.80;99.90;;;;;;5042016;28;20029;-39
2022/11/18 00:39:40;;;;;;;3.95;1.65;;;9.80;99.90;;;;;;5041884;28;20040;-40
2022/11/18 00:44:50;;;;;;;2.67;1.70;;;9.70;99.90;;;;;;5042118;28;20036;-40
2022/11/18 00:47:15;;;;;;;3.35;1.70;;;9.70;99.90;;;;;;5041323;28;20029;-39
2022/11/18 00:49:41;;;;;;;3.65;1.80;;;9.70;99.90;;;;;;5042995;28;20017;-39
2022/11/18 00:52:07;;;;;;;3.80;1.58;;;9.80;99.90;;;;;;5041682;28;20552;-39
2022/11/18 00:54:32;;;;;;;4.93;1.80;;;9.80;99.90;;;;;;5042190;28;20027;-39
2022/11/18 00:56:58;;;;;;;2.70;1.85;;;9.90;99.90;;;;;;5041784;28;20041;-39
2022/11/18 00:59:24;;;;;;;3.33;1.58;;;9.90;99.90;;;;;;5041949;28;20031;-38
2022/11/18 01:01:49;;;;;;;5.25;2.38;;;10.00;99.90;;;;;;5041446;28;20057;-39
2022/11/18 01:04:16;;;;;;;4.63;1.70;;;10.00;99.90;;;;;;5041925;28;20124;-36
2022/11/18 01:06:41;;;;;;;4.68;1.80;;;10.00;99.90;;;;;;5042007;28;20017;-38
2022/11/18 01:09:09;;;;;;;2.78;1.80;;;10.10;99.90;;;;;;5041916;28;20036;-39
2022/11/18 01:14:19;;;;;;;4.47;2.15;;;10.10;99.90;;;;;;5040954;28;20216;-40
2022/11/18 01:16:49;;;;;;;4.57;2.05;;;10.10;99.90;;;;;;5041493;28;20437;-40
2022/11/18 01:19:16;;;;;;;3.50;2.08;;;10.20;99.90;;;;;;5041621;28;20366;-38
2022/11/18 01:21:42;;;;;;;5.85;2.63;;;10.20;99.90;;;;;;5041170;28;20029;-40
2022/11/18 01:24:07;;;;;;;3.88;1.80;;;10.20;99.90;;;;;;5041510;28;20036;-39
2022/11/18 01:26:33;;;;;;;4.30;1.90;;;10.20;99.90;;;;;;5041878;28;20880;-40
2022/11/18 01:28:58;;;;;;;4.65;2.38;;;10.20;99.90;;;;;;5040254;28;20449;-39
2022/11/18 01:31:24;;;;;;;3.63;1.90;;;10.20;99.90;;;;;;5041456;28;20025;-40
2022/11/18 01:33:49;;;;;;;2.70;1.70;;;10.20;99.90;;;;;;5030828;28;20060;-40
2022/11/18 01:36:18;;;;;;;2.45;1.55;;;10.10;99.90;;;;;;5040598;28;20421;-40
2022/11/18 01:38:44;;;;;;;3.13;1.63;;;10.10;99.90;;;;;;5041426;28;20385;-40
2022/11/18 01:41:10;;;;;;;2.97;1.77;;;10.00;99.90;;;;;;5040977;28;20059;-39
2022/11/18 01:44:08;;;;;;;3.25;1.80;;;10.00;99.90;;;;;;5040718;28;20385;-43
2022/11/18 01:46:34;;;;;;;4.72;1.80;;;10.00;99.90;;;;;;5021682;28;20076;-40
2022/11/18 01:49:06;;;;;;;5.13;2.05;;;10.00;99.90;;;;;;5040857;28;20073;-40
2022/11/18 01:51:52;;;;;;;2.97;1.80;;;10.00;99.90;;;;;;5044595;28;20075;-39
2022/11/18 01:54:24;;;;;;;4.32;1.83;;;9.90;99.90;;;;;;5042996;28;20029;-41
2022/11/18 01:56:55;;;;;;;4.97;1.98;;;9.90;99.90;;;;;;5043939;28;20041;-40
2022/11/18 01:59:29;;;;;;;4.45;1.70;;;10.00;99.90;;;;;;5044904;28;20025;-40
2022/11/18 02:01:55;;;;;;;6.60;2.50;;;9.90;99.90;;;;;;5045324;28;20488;-41
2022/11/18 02:04:22;;;;;;;2.78;1.65;;;9.90;99.90;;;;;;5044450;28;20090;-38
2022/11/18 02:06:48;;;;;;;4.10;1.95;;;9.90;99.90;;;;;;5045229;28;20025;-38
2022/11/18 02:09:15;;;;;;;2.83;1.65;;;9.80;99.90;;;;;;5045073;28;20079;-40
2022/11/18 02:11:50;;;;;;;4.47;1.73;;;9.80;99.90;;;;;;5044412;28;20052;-40
2022/11/18 02:14:26;;;;;;;3.40;1.77;;;9.70;99.90;;;;;;5044429;28;20033;-40
2022/11/18 02:17:07;;;;;;;2.63;1.45;;;9.70;99.90;;;;;;5043722;28;20041;-36
2022/11/18 02:19:45;;;;;;;4.90;1.90;;;9.70;99.90;;;;;;5043850;28;20021;-37
2022/11/18 02:22:22;;;;;;;3.22;1.70;;;9.80;99.90;;;;;;5044915;28;20116;-40
2022/11/18 02:25:06;;;;;;;4.10;1.80;;;9.80;99.90;;;;;;5043776;28;20037;-39
2022/11/18 02:28:05;;;;;;;3.53;2.10;;;9.70;99.90;;;;;;5044062;28;20025;-40
2022/11/18 02:30:39;;;;;;;5.60;1.88;;;9.80;99.90;;;;;;5042252;28;20036;-41
2022/11/18 02:33:11;;;;;;;2.88;1.70;;;9.80;99.90;;;;;;5043085;28;20057;-39
2022/11/18 02:35:43;;;;;;;3.38;1.80;;;9.80;99.90;;;;;;5043785;28;20024;-40
2022/11/18 02:38:12;;;;;;;3.28;1.80;;;9.80;99.90;;;;;;5043725;28;20040;-36
2022/11/18 02:40:48;;;;;;;2.47;1.75;;;9.80;99.90;;;;;;5039521;28;20021;-40
2022/11/18 02:43:26;;;;;;;3.88;1.95;;;9.90;99.90;;;;;;5044354;28;20040;-37
2022/11/18 02:45:58;;;;;;;4.18;2.00;;;9.90;99.90;;;;;;5040140;28;20017;-40
2022/11/18 02:48:26;;;;;;;4.28;1.77;;;9.90;99.90;;;;;;5044063;28;20117;-39
2022/11/18 02:50:54;;;;;;;2.75;1.80;;;9.90;99.90;;;;;;5043743;28;20128;-38
2022/11/18 02:53:22;;;;;;;3.42;1.58;;;9.90;99.90;;;;;;5043761;28;20078;-39
2022/11/18 02:55:48;;;;;;;3.70;1.95;;;9.90;99.90;;;;;;5042842;28;20044;-40
2022/11/18 02:58:16;;;;;;;3.65;1.60;;;10.00;99.90;;;;;;5043620;28;20055;-39
2022/11/18 03:00:43;;;;;;;4.05;1.70;;;10.00;99.90;;;;;;5043017;28;20047;-38
2022/11/18 03:03:26;;;;;;;1.85;1.48;;;10.00;99.90;;;;;;5044290;28;20024;-38
2022/11/18 03:06:20;;;;;;;2.80;1.70;;;10.00;99.90;;;;;;5041789;28;20037;-40
2022/11/18 03:08:51;;;;;;;3.33;1.73;;;10.00;99.90;;;;;;5022690;28;20149;-39
2022/11/18 03:11:20;;;;;;;3.75;1.80;;;10.00;99.90;;;;;;5042034;28;20025;-40
2022/11/18 03:13:58;;;;;;;4.90;2.10;;;10.10;99.90;;;;;;5043106;28;20143;-38
2022/11/18 03:16:31;;;;;;;2.92;1.50;;;10.10;99.90;;;;;;5043738;28;20029;-40
2022/11/18 03:19:12;;;;;;;3.10;1.90;;;10.10;99.90;;;;;;5043864;28;20477;-40
2022/11/18 03:21:51;;;;;;;4.32;1.92;;;10.10;99.90;;;;;;5042658;28;20511;-40
2022/11/18 03:24:22;;;;;;;3.38;1.40;;;10.10;99.90;;;;;;5043708;28;20066;-39
2022/11/18 03:26:52;;;;;;;2.95;1.60;;;10.10;99.90;;;;;;5043266;28;20075;-33
2022/11/18 03:29:24;;;;;;;4.95;1.70;;;10.10;99.90;;;;;;5042821;28;20039;-37
2022/11/18 03:31:59;;;;;;;6.35;1.95;;;10.10;99.90;;;;;;5042673;28;20071;-39
2022/11/18 03:34:50;;;;;;;4.18;2.08;;;10.10;99.90;;;;;;5043056;28;20051;-38
2022/11/18 03:37:19;;;;;;;3.40;2.08;;;10.10;99.90;;;;;;5039915;28;20119;-40
2022/11/18 03:39:49;;;;;;;3.58;1.85;;;10.10;99.90;;;;;;5042942;28;20059;-39
2022/11/18 03:42:26;;;;;;;3.58;1.60;;;10.10;99.90;;;;;;5042049;28;20051;-37
2022/11/18 03:44:56;;;;;;;2.33;1.60;;;10.10;99.90;;;;;;5042518;28;20029;-38
2022/11/18 03:47:30;;;;;;;4.55;1.58;;;10.10;99.90;;;;;;5042929;28;20095;-40
2022/11/18 03:50:14;;;;;;;2.47;1.50;;;10.10;99.90;;;;;;5042708;28;20052;-40
2022/11/18 03:52:41;;;;;;;4.05;1.60;;;10.10;99.90;;;;;;5042907;28;20033;-40
2022/11/18 03:55:13;;;;;;;2.15;1.73;;;10.20;99.90;;;;;;5042463;28;20535;-41
2022/11/18 03:57:55;;;;;;;3.85;1.80;;;10.10;99.90;;;;;;5041967;28;20036;-40
2022/11/18 04:00:21;;;;;;;3.25;1.45;;;10.10;99.90;;;;;;5042580;28;20459;-40
2022/11/18 04:02:49;;;;;;;3.35;1.40;;;10.20;99.90;;;;;;5042042;28;20033;-41
2022/11/18 04:05:16;;;;;;;3.17;1.40;;;10.10;99.90;;;;;;5042265;28;20052;-40
2022/11/18 04:07:58;;;;;;;3.08;1.50;;;10.10;99.90;;;;;;5041537;28;20460;-41
2022/11/18 04:10:40;;;;;;;4.75;1.58;;;10.10;99.90;;;;;;5025430;28;20454;-39
2022/11/18 04:13:27;;;;;;;2.70;1.70;;;10.10;99.90;;;;;;5042443;28;20128;-40
2022/11/18 04:15:54;;;;;;;3.05;1.58;;;10.10;99.90;;;;;;5022155;28;20133;-39
2022/11/18 04:18:20;;;;;;;1.88;1.50;;;10.10;99.90;;;;;;5038549;28;20697;-40
2022/11/18 04:20:45;;;;;;;2.55;1.70;;;10.10;99.90;;;;;;5042849;28;20032;-39
2022/11/18 04:23:11;;;;;;;3.35;1.60;;;10.10;99.90;;;;;;5041773;28;20496;-39
2022/11/18 04:25:37;;;;;;;2.33;1.40;;;10.10;99.90;;;;;;5041551;28;20032;-40
2022/11/18 04:28:03;;;;;;;4.22;1.70;;;10.10;99.90;;;;;;5042461;28;20227;-40
2022/11/18 04:30:29;;;;;;;2.63;1.65;;;10.10;99.90;;;;;;5041931;28;20025;-40
2022/11/18 04:32:54;;;;;;;2.28;1.70;;;10.20;99.90;;;;;;5040927;28;20114;-40
2022/11/18 04:35:20;;;;;;;2.17;1.60;;;10.20;99.90;;;;;;5042789;28;20468;-39
2022/11/18 04:37:45;;;;;;;6.65;1.95;;;10.20;99.90;;;;;;5042180;28;20429;-40
2022/11/18 04:40:11;;;;;;;4.82;1.80;;;10.20;99.90;;;;;;5041431;28;20072;-39
2022/11/18 04:42:37;;;;;;;3.40;1.83;;;10.20;99.90;;;;;;5041511;28;20559;-39
2022/11/18 04:45:04;;;;;;;2.63;1.70;;;10.20;99.90;;;;;;5041641;28;20040;-40
2022/11/18 04:47:29;;;;;;;4.28;1.95;;;10.20;99.90;;;;;;5042106;28;20112;-40
2022/11/18 04:49:55;;;;;;;4.03;1.55;;;10.20;99.90;;;;;;5041395;28;20023;-41
2022/11/18 04:52:21;;;;;;;2.67;1.60;;;10.20;99.90;;;;;;5041748;28;20112;-40
2022/11/18 04:54:46;;;;;;;2.75;1.60;;;10.10;99.90;;;;;;5041676;28;20381;-39
2022/11/18 04:57:12;;;;;;;2.65;1.67;;;10.10;99.90;;;;;;5042354;28;20475;-41
2022/11/18 04:59:38;;;;;;;4.00;1.60;;;10.10;99.90;;;;;;5041021;28;20033;-39
2022/11/18 05:02:04;;;;;;;6.22;2.00;;;10.10;99.90;;;;;;5043282;28;20070;-40
2022/11/18 05:04:32;;;;;;;3.28;2.00;;;10.10;99.90;;;;;;5042497;28;20039;-37
2022/11/18 05:06:59;;;;;;;3.58;2.10;;;10.10;99.90;;;;;;5041134;28;20171;-39
2022/11/18 05:09:25;;;;;;;4.88;1.88;;;10.00;99.90;;;;;;5041443;28;20567;-40
2022/11/18 05:14:35;;;;;;;4.57;2.38;;;10.00;99.90;;;;;;5041146;28;20035;-39
2022/11/18 05:17:03;;;;;;;2.75;1.70;;;9.90;99.90;;;;;;5042074;28;20050;-39
2022/11/18 05:19:29;;;;;;;4.47;2.15;;;9.90;99.90;;;;;;5042641;28;20021;-41
2022/11/18 05:21:55;;;;;;;2.72;1.83;;;9.90;99.90;;;;;;5045050;28;20033;-39
2022/11/18 05:24:23;;;;;;;4.05;1.98;;;9.90;99.90;;;;;;5045939;28;20017;-40
2022/11/18 05:26:52;;;;;;;2.80;1.90;;;9.90;99.90;;;;;;5045313;28;20028;-39
2022/11/18 05:29:18;;;;;;;5.28;1.58;;;9.80;99.90;;;;;;5045000;28;20388;-39
2022/11/18 05:31:45;;;;;;;3.20;1.90;;;9.90;99.90;;;;;;5045587;28;20027;-41
2022/11/18 05:34:11;;;;;;;3.58;1.67;;;9.90;99.90;;;;;;5045154;28;20400;-41
2022/11/18 05:36:40;;;;;;;3.60;1.88;;;9.90;99.90;;;;;;5044071;28;20103;-41
2022/11/18 05:39:06;;;;;;;2.08;1.67;;;9.90;99.90;;;;;;5045228;28;20032;-39
2022/11/18 05:44:16;;;;;;;3.63;1.80;;;9.90;99.90;;;;;;5044827;28;20044;-40
2022/11/18 05:46:41;;;;;;;2.88;1.77;;;9.90;99.90;;;;;;5044644;28;20029;-40
2022/11/18 05:49:07;;;;;;;3.15;1.83;;;9.90;99.90;;;;;;5044770;28;20055;-39
2022/11/18 05:51:33;;;;;;;2.33;1.60;;;9.90;99.90;;;;;;5044355;28;20559;-41
2022/11/18 05:54:03;;;;;;;3.50;1.60;;;9.90;99.90;;;;;;5045051;28;20032;-40
2022/11/18 05:56:38;;;;;;;3.33;1.50;;;9.90;99.90;;;;;;5044189;28;20083;-39
2022/11/18 05:59:05;;;;;;;2.63;1.85;;;10.00;99.90;;;;;;5025234;28;20117;-40
2022/11/18 06:01:30;;;;;;;2.38;1.63;;;9.90;99.90;;;;;;5039307;28;20171;-39
2022/11/18 06:03:57;;;;;;;2.15;1.60;;;9.90;99.90;;;;;;5044797;28;20130;-40
2022/11/18 06:06:23;;;;;;;2.38;1.85;;;9.90;99.90;;;;;;5044931;28;20426;-40
2022/11/18 06:08:58;;;;;;;3.42;1.60;;;9.90;99.90;;;;;;5044909;28;20495;-40
2022/11/18 06:11:24;;;;;;;2.92;1.92;;;9.80;99.90;;;;;;5044885;28;20083;-40
2022/11/18 06:14:04;;;;;;;1.75;1.55;;;9.80;99.90;;;;;;5045393;28;20029;-38
2022/11/18 06:16:31;;;;;;;3.08;1.80;;;9.80;99.90;;;;;;5044528;28;20075;-41
2022/11/18 06:18:57;;;;;;;2.53;1.85;;;9.70;99.90;;;;;;5045141;28;20029;-39
2022/11/18 06:21:23;;;;;;;3.95;1.50;;;9.60;99.90;;;;;;5044742;28;20139;-39
2022/11/18 06:23:49;;;;;;;3.78;2.53;;;9.60;99.90;;;;;;5044121;28;20032;-40
2022/11/18 06:26:15;;;;;;;2.53;1.77;;;9.60;99.90;;;;;;5045355;28;20056;-36
2022/11/18 06:28:44;;;;;;;3.97;1.65;;;9.50;99.90;;;;;;5044857;28;20036;-37
2022/11/18 06:31:10;;;;;;;3.53;2.00;;;9.50;99.90;;;;;;5043193;28;20055;-37
2022/11/18 06:33:35;;;;;;;2.20;1.90;;;9.50;99.90;;;;;;5043182;28;20815;-37
2022/11/18 06:36:01;;;;;;;3.67;2.08;;;9.50;99.90;;;;;;5044300;28;20776;-38
2022/11/18 06:38:27;;;;;;;3.60;1.70;;;9.40;99.90;;;;;;5044379;28;20025;-38
2022/11/18 06:40:53;;;;;;;4.50;2.00;;;9.40;99.90;;;;;;5044686;28;20029;-39
2022/11/18 06:48:48;;;;;;;2.90;1.98;;;9.40;99.90;;;;;;5043569;28;20036;-40
2022/11/18 06:51:14;;;;;;;3.15;1.80;;;9.40;99.90;;;;;;5044204;28;20017;-39
2022/11/18 06:53:39;;;;;;;1.98;1.77;;;9.40;99.90;;;;;;5043083;28;20041;-39
2022/11/18 06:56:07;;;;;;;2.40;1.90;;;9.40;99.90;;;;;;5044387;28;20075;-41
2022/11/18 06:58:33;;;;;;;2.80;2.03;;;9.40;99.90;;;;;;5043137;28;20050;-41
2022/11/18 07:01:11;;;;;;;4.55;2.30;;;9.40;99.90;;;;;;5044084;28;20032;-37
2022/11/18 07:03:36;;;;;;;5.00;3.00;;;9.40;99.90;;;;;;5043665;28;20036;-39
2022/11/18 07:06:02;;;;;;;3.83;2.60;;;9.30;99.90;;;;;;5043109;28;20033;-41
2022/11/18 07:08:27;;;;;;;3.47;2.72;;;9.30;99.90;;;;;;5043249;28;20785;-41
2022/11/18 07:10:53;;;;;;;6.53;3.00;;;9.30;99.90;;;;;;5042937;28;20033;-39
2022/11/18 07:13:19;;;;;;;2.95;2.22;;;9.30;99.90;;;;;;5042923;28;20047;-41
2022/11/18 07:15:44;;;;;;;3.50;2.53;;;9.30;99.90;;;;;;5041483;28;20041;-41
2022/11/18 07:18:10;;;;;;;3.72;2.40;;;9.30;99.90;;;;;;5042656;28;20032;-41
2022/11/18 07:20:35;;;;;;;3.95;2.42;;;9.30;99.90;;;;;;5042321;28;20044;-38
2022/11/18 07:23:01;;;;;;;4.57;2.45;;;9.20;99.90;;;;;;5042911;28;20025;-39
2022/11/18 07:25:26;;;;;;;2.47;1.90;;;9.30;99.90;;;;;;5042773;28;20022;-40
2022/11/18 07:27:52;;;;;;;4.15;2.20;;;9.30;99.90;;;;;;5042185;28;20782;-40
2022/11/18 07:30:17;;;;;;;4.20;1.90;;;9.30;99.90;;;;;;5043133;28;20032;-41
2022/11/18 07:32:43;;;;;;;2.60;1.80;;;9.30;99.90;;;;;;5048545;28;20039;-38
2022/11/18 07:35:09;;;;;;;3.22;2.20;;;9.30;99.90;;;;;;5042945;28;20028;-36
2022/11/18 07:37:35;;;;;;;2.97;2.05;;;9.30;99.90;;;;;;5042600;28;20048;-40
2022/11/18 07:40:01;;;;;;;4.28;2.40;;;9.30;99.90;;;;;;5042386;28;20021;-40
2022/11/18 07:42:26;;;;;;;6.25;2.22;;;9.30;99.90;;;;;;5041941;28;20032;-37
2022/11/18 07:44:52;;;;;;;3.58;2.05;;;9.30;99.90;;;;;;5040634;28;20021;-36
2022/11/18 07:47:17;;;;;;;3.38;2.00;;;9.30;99.90;;;;;;5036769;28;20013;-40
2022/11/18 07:49:43;;;;;;;3.22;1.92;;;9.40;99.90;;;;;;5037165;28;20021;-39
2022/11/18 07:52:08;;;;;;;3.38;2.00;;;9.40;99.90;;;;;;5039757;28;20064;-41
2022/11/18 07:54:34;;;;;;;3.88;2.00;;;9.40;99.90;;;;;;5041755;28;20025;-41
2022/11/18 07:57:00;;;;;;;2.78;2.08;;;9.40;99.90;;;;;;5041858;28;20029;-39
2022/11/18 07:59:25;;;;;;;3.78;2.08;;;9.40;99.90;;;;;;5042675;28;20020;-39
2022/11/18 08:01:51;;;;;;;2.85;2.10;;;9.40;99.90;;;;;;5042022;28;20095;-38
2022/11/18 08:04:16;;;;;;;4.38;2.05;;;9.40;99.90;;;;;;5042207;28;20025;-41
2022/11/18 08:06:42;;;;;;;3.67;2.00;;;9.40;99.90;;;;;;5041617;28;20024;-40
2022/11/18 08:09:08;;;;;;;2.88;1.80;;;9.40;99.90;;;;;;5041947;28;20040;-40
2022/11/18 08:11:34;;;;;;;3.80;1.75;;;9.40;99.90;;;;;;5042038;28;20141;-38
2022/11/18 08:13:59;;;;;;;2.88;1.80;;;9.50;99.90;;;;;;5042890;28;20482;-41
2022/11/18 08:16:26;;;;;;;3.80;2.10;;;9.40;99.90;;;;;;5041026;28;20037;-40
2022/11/18 08:18:52;;;;;;;3.20;1.88;;;9.50;99.90;;;;;;5042388;28;20031;-40
2022/11/18 08:21:23;;;;;;;4.18;2.03;;;9.50;99.90;;;;;;5042063;28;20033;-41
2022/11/18 08:23:53;;;;;;;4.65;2.50;;;9.50;99.90;;;;;;5039737;28;20091;-40
2022/11/18 08:26:19;;;;;;;3.58;2.30;;;9.60;99.90;;;;;;5042617;28;20412;-39
2022/11/18 08:28:46;;;;;;;3.20;2.38;;;9.60;99.90;;;;;;5042050;28;20071;-39
2022/11/18 08:31:24;;;;;;;3.22;2.40;;;9.60;99.90;;;;;;5041554;28;20127;-41
2022/11/18 08:33:56;;;;;;;5.28;2.22;;;9.60;99.90;;;;;;5041777;28;20052;-41
2022/11/18 08:36:23;;;;;;;;;;;9.60;99.90;;;;;;5041874;28;20069;-38
2022/11/18 08:38:49;;;;;;;3.13;2.25;;;9.60;99.90;;;;;;5041291;28;20427;-40
2022/11/18 08:41:18;;;;;;;3.55;2.50;;;9.60;99.90;;;;;;5042131;28;20029;-40
2022/11/18 08:43:43;;;;;;;3.85;2.20;;;9.60;99.90;;;;;;5041380;28;20025;-40
2022/11/18 08:46:09;;;;;;;4.22;2.20;;;9.60;99.90;;;;;;5041220;28;20078;-40
2022/11/18 08:48:35;;;;;;;3.40;2.35;;;9.60;99.90;;;;;;5041340;28;20032;-40
2022/11/18 08:51:01;;;;;;;2.97;2.13;;;9.60;99.90;;;;;;5042125;28;20038;-40
2022/11/18 08:53:26;;;;;;;5.05;2.70;;;9.70;99.90;;;;;;5042629;28;20032;-39
2022/11/18 08:55:59;;;;;;;4.20;2.80;;;9.70;99.90;;;;;;5045947;28;20075;-39
2022/11/18 08:58:25;;;;;;;4.75;2.55;;;9.70;99.90;;;;;;5044971;28;20025;-38
2022/11/18 09:00:51;;;;;;;4.32;2.65;;;9.70;99.90;;;;;;5046004;28;20094;-40
2022/11/18 09:03:16;;;;;;;3.47;2.50;;;9.70;99.90;;;;;;5046051;28;20602;-41
2022/11/18 09:05:42;;;;;;;3.92;2.50;;;9.70;99.90;;;;;;5043751;28;20041;-40
2022/11/18 09:08:08;;;;;;;3.28;2.50;;;9.70;99.90;;;;;;5045390;28;20856;-40
2022/11/18 09:10:33;;;;;;;4.75;2.92;;;9.70;99.90;;;;;;5045316;28;20056;-40
2022/11/18 09:13:01;;;;;;;5.20;2.65;;;9.70;99.90;;;;;;5045816;28;20063;-40
2022/11/18 09:15:28;;;;;;;4.40;2.83;;;9.70;99.90;;;;;;5045585;28;20044;-39
2022/11/18 09:17:55;;;;;;;5.85;2.45;;;9.80;99.90;;;;;;5045160;28;20025;-40
2022/11/18 09:20:20;;;;;;;5.07;2.83;;;9.80;99.90;;;;;;5045130;28;20029;-40
2022/11/18 09:22:46;;;;;;;4.20;2.70;;;9.80;99.90;;;;;;5045279;28;20036;-40
2022/11/18 09:25:12;;;;;;;4.55;2.60;;;9.80;99.90;;;;;;5045953;28;20021;-39
2022/11/18 09:27:37;;;;;;;3.63;2.50;;;9.90;99.90;;;;;;5044391;28;20295;-38
2022/11/18 09:30:03;;;;;;;5.07;2.88;;;9.90;99.90;;;;;;5044076;28;20028;-40
2022/11/18 09:32:29;;;;;;;4.85;2.42;;;9.90;99.90;;;;;;5044327;28;20044;-41
2022/11/18 09:34:54;;;;;;;3.45;2.65;;;10.00;99.90;;;;;;5045075;28;20435;-39
2022/11/18 09:37:21;;;;;;;4.72;2.35;;;10.00;99.90;;;;;;5045074;28;20058;-41
2022/11/18 09:39:46;;;;;;;5.15;2.70;;;10.00;99.90;;;;;;5045352;28;20100;-40
2022/11/18 09:42:45;;;;;;;3.38;2.20;;;10.10;99.90;;;;;;5044637;28;20025;-41
2022/11/18 09:45:18;;;;;;;3.58;2.28;;;10.10;99.90;;;;;;5045067;28;20037;-38
2022/11/18 09:47:44;;;;;;;4.68;2.33;;;10.10;99.90;;;;;;5044084;28;20036;-41
2022/11/18 09:50:13;;;;;;;4.82;2.58;;;10.10;99.90;;;;;;5045550;28;20029;-41
2022/11/18 09:52:43;;;;;;;4.43;2.63;;;10.10;99.90;;;;;;5043924;28;20123;-40
2022/11/18 09:55:14;;;;;;;3.50;2.30;;;10.00;99.90;;;;;;5040753;28;20094;-40
2022/11/18 09:57:51;;;;;;;5.38;2.85;;;10.10;99.90;;;;;;5044175;28;20508;-39
2022/11/18 10:00:29;;;;;;;4.85;2.40;;;10.10;99.90;;;;;;5044163;28;20127;-40
2022/11/18 10:02:59;;;;;;;4.00;2.72;;;10.10;99.90;;;;;;5044367;28;20032;-39
2022/11/18 10:05:54;;;;;;;4.93;2.40;;;10.10;99.90;;;;;;5043805;28;20028;-44
2022/11/18 10:09:00;;;;;;;6.43;2.45;;;10.20;99.90;;;;;;5044171;28;20025;-41
2022/11/18 10:11:53;;;;;;;5.05;2.58;;;10.20;99.90;;;;;;5036489;28;20052;-39
2022/11/18 10:14:27;;;;;;;4.85;2.70;;;10.20;99.90;;;;;;5033258;28;20043;-41
2022/11/18 10:17:11;;;;;;;3.28;2.38;;;10.20;99.90;;;;;;5043754;28;20052;-38
2022/11/18 10:20:11;;;;;;;4.43;2.70;;;10.20;99.90;;;;;;5044066;28;20013;-38
2022/11/18 10:22:48;;;;;;;7.10;2.63;;;10.20;99.90;;;;;;5043922;28;20029;-40
2022/11/18 10:25:15;;;;;;;4.43;2.45;;;10.20;99.90;;;;;;5044496;28;20112;-42
2022/11/18 10:27:43;;;;;;;2.42;2.22;;;10.20;99.90;;;;;;5043969;28;20413;-37
2022/11/18 10:30:30;;;;;;;3.80;2.63;;;10.20;99.90;;;;;;5044080;28;20036;-40
2022/11/18 10:33:16;;;;;;;4.25;2.38;;;10.20;99.90;;;;;;5044017;28;20052;-40
2022/11/18 10:35:41;;;;;;;4.75;2.10;;;10.20;99.90;;;;;;5042767;28;20387;-39
2022/11/18 10:38:13;;;;;;;3.10;2.25;;;10.20;99.90;;;;;;5043295;28;20742;-40
2022/11/18 10:40:56;;;;;;;2.83;2.40;;;10.20;99.90;;;;;;5043288;28;20043;-39
2022/11/18 10:43:50;;;;;;;3.83;2.38;;;10.10;99.90;;;;;;5043581;28;20103;-39
2022/11/18 10:46:25;;;;;;;4.25;2.00;;;10.10;99.90;;;;;;5043655;28;20079;-39
2022/11/18 10:49:08;;;;;;;3.65;2.30;;;10.10;99.90;;;;;;5042936;28;20032;-40
2022/11/18 10:52:02;;;;;;;3.05;2.65;;;10.10;99.90;;;;;;5042471;28;20029;-42
2022/11/18 10:54:28;;;;;;;2.28;2.08;;;10.10;99.90;;;;;;5043552;28;20021;-40
2022/11/18 10:56:56;;;;;;;5.00;2.38;;;10.20;99.90;;;;;;5042925;28;20040;-37
2022/11/18 10:59:33;;;;;;;3.78;2.40;;;10.20;99.90;;;;;;5043257;28;20468;-40
2022/11/18 11:02:32;;;;;;;3.50;2.30;;;10.20;99.90;;;;;;5043229;28;20028;-41
2022/11/18 11:05:03;;;;;;;3.63;2.33;;;10.20;99.90;;;;;;5043126;28;20067;-41
2022/11/18 11:07:36;;;;;;;4.07;2.58;;;10.30;99.90;;;;;;5043739;28;20021;-39
2022/11/18 11:10:07;;;;;;;3.80;2.60;;;10.20;99.90;;;;;;5043038;28;20102;-42
2022/11/18 11:12:45;;;;;;;4.32;2.55;;;10.30;99.90;;;;;;5042641;28;20021;-41
2022/11/18 11:15:52;;;;;;;4.13;2.50;;;10.40;99.90;;;;;;5024003;28;20536;-42
2022/11/18 11:18:41;;;;;;;3.78;3.05;;;10.40;99.90;;;;;;5033623;28;20045;-38
2022/11/18 11:21:13;;;;;;;5.28;3.58;;;10.50;99.90;;;;;;5043062;28;20115;-41
2022/11/18 11:23:41;;;;;;;5.32;2.83;;;10.60;99.90;;;;;;5042784;28;20492;-40
2022/11/18 11:26:17;;;;;;;4.43;2.60;;;10.70;99.90;;;;;;5043034;28;20055;-41
2022/11/18 11:29:04;;;;;;;4.57;2.90;;;10.80;99.90;;;;;;5032658;28;20055;-39
2022/11/18 11:31:51;;;;;;;3.22;2.20;;;11.00;99.90;;;;;;5043154;28;20572;-39
2022/11/18 11:34:16;;;;;;;5.05;3.17;;;11.10;99.90;;;;;;5043758;28;20094;-41
2022/11/18 11:36:48;;;;;;;2.83;2.50;;;11.20;99.90;;;;;;5042666;28;20040;-42
2022/11/18 11:39:37;;;;;;;3.30;2.53;;;11.30;99.90;;;;;;5042864;28;20777;-40
2022/11/18 11:42:31;;;;;;;4.07;2.60;;;11.30;99.90;;;;;;5042986;28;20086;-40
2022/11/18 11:45:22;;;;;;;5.20;2.78;;;11.30;99.90;;;;;;5043410;28;20409;-38
2022/11/18 11:48:13;;;;;;;5.90;2.50;;;11.30;99.90;;;;;;5041488;28;20072;-38
2022/11/18 11:50:53;;;;;;;6.80;3.28;;;11.40;99.90;;;;;;5041996;28;20031;-39
2022/11/18 11:53:19;;;;;;;4.90;3.50;;;11.30;99.90;;;;;;5042883;28;20033;-40
2022/11/18 11:56:12;;;;;;;5.25;3.00;;;11.30;99.90;;;;;;5041921;28;20040;-37
2022/11/18 11:58:46;;;;;;;5.93;3.20;;;11.30;99.90;;;;;;5042790;28;20029;-39
2022/11/18 12:01:41;;;;;;;5.35;2.85;;;11.30;99.90;;;;;;5023069;28;20043;-39
2022/11/18 12:04:21;;;;;;;5.22;2.92;;;11.30;99.90;;;;;;5041564;28;20040;-42
2022/11/18 12:06:51;;;;;;;4.13;2.33;;;11.20;99.90;;;;;;5039127;28;20037;-41
2022/11/18 12:09:29;;;;;;;3.75;2.83;;;11.30;99.90;;;;;;5041998;28;20025;-41
2022/11/18 12:12:34;;;;;;;4.82;2.72;;;11.30;99.90;;;;;;5042777;28;20555;-41
2022/11/18 12:15:39;;;;;;;3.58;2.42;;;11.40;99.90;;;;;;5040861;28;20033;-40
2022/11/18 12:18:11;;;;;;;3.20;2.40;;;11.40;99.90;;;;;;5043020;28;20048;-41
2022/11/18 12:20:44;;;;;;;4.25;2.45;;;11.30;99.90;;;;;;5041411;28;20389;-40
2022/11/18 12:23:13;;;;;;;3.55;2.30;;;11.40;99.90;;;;;;5041711;28;20530;-40
2022/11/18 12:25:50;;;;;;;3.28;2.20;;;11.40;99.90;;;;;;5042182;28;20029;-40
2022/11/18 12:28:44;;;;;;;4.55;2.63;;;11.30;99.90;;;;;;5041703;28;20059;-37
2022/11/18 12:31:18;;;;;;;3.70;2.40;;;11.30;99.90;;;;;;5034215;28;20845;-37
2022/11/18 12:33:46;;;;;;;3.65;2.40;;;11.40;99.90;;;;;;5041976;28;20041;-36
2022/11/18 12:36:41;;;;;;;3.63;2.58;;;11.40;99.90;;;;;;5041804;28;20767;-40
2022/11/18 12:39:25;;;;;;;4.78;2.70;;;11.40;99.90;;;;;;5042526;28;20060;-39
2022/11/18 12:44:50;;;;;;;4.55;2.50;;;11.80;99.90;;;;;;5041551;28;20036;-39
2022/11/18 12:47:42;;;;;;;5.90;2.50;;;11.90;99.90;;;;;;5041443;28;20031;-39
2022/11/18 12:50:13;;;;;;;3.42;2.53;;;11.90;99.90;;;;;;5042073;28;20378;-38
2022/11/18 12:52:39;;;;;;;6.23;3.17;;;11.90;99.90;;;;;;5040853;28;20028;-40
2022/11/18 12:55:23;;;;;;;5.68;2.50;;;11.90;99.90;;;;;;5041695;28;20318;-40
2022/11/18 12:57:49;;;;;;;6.60;2.55;;;12.00;99.90;;;;;;5041372;28;20045;-39
2022/11/18 13:00:21;;;;;;;4.43;2.40;;;12.00;99.90;;;;;;5042211;28;20039;-37
2022/11/18 13:02:51;;;;;;;;;;;12.00;99.90;;;;;;5041659;28;20025;-38
2022/11/18 13:05:22;;;;;;;6.15;2.65;;;12.10;99.90;;;;;;5041652;28;19974;-37
2022/11/18 13:08:14;;;;;;;4.25;2.60;;;12.10;99.90;;;;;;5038003;28;20029;-40
2022/11/18 13:10:50;;;;;;;4.50;2.63;;;12.10;99.90;;;;;;5041390;28;20024;-42
2022/11/18 13:13:30;;;;;;;4.72;2.60;;;12.10;99.90;;;;;;5041313;28;20095;-39
2022/11/18 13:18:50;;;;;;;4.78;2.28;;;12.00;99.90;;;;;;5033996;28;20153;-38
2022/11/18 13:24:17;;;;;;;5.63;2.30;;;11.90;99.90;;;;;;5022053;28;20052;-39
2022/11/18 13:26:45;;;;;;;6.47;2.90;;;11.90;99.90;;;;;;5039336;28;20028;-39
2022/11/18 13:29:37;;;;;;;5.93;2.70;;;11.90;99.90;;;;;;5041791;28;20033;-41
2022/11/18 13:32:11;;;;;;;3.97;2.03;;;11.90;99.90;;;;;;5041068;28;20556;-41
2022/11/18 13:34:44;;;;;;;5.30;2.40;;;11.80;99.90;;;;;;5041444;28;20037;-39
2022/11/18 13:37:18;;;;;;;4.03;2.20;;;11.90;99.90;;;;;;5041371;28;20070;-40
2022/11/18 13:39:45;;;;;;;6.60;2.50;;;11.80;99.90;;;;;;5040854;28;20404;-38
2022/11/18 13:42:19;;;;;;;4.43;2.40;;;11.80;99.90;;;;;;5045980;28;20033;-40